Time;durP1;ratioP1;P1;durP2;ratioP2;P2;SDS_P1;SDS_P2;PMS_P1;PMS_P2;Temp;Humidity;BMP_temperature;BMP_pressure;BME280_temperature;BME280_humidity;BME280_pressure;Samples;Min_cycle;Max_cycle;Signal;HPM_P1;HPM_P2
2022/09/16 00:00:43;;;;;;;5.03;1.08;;;11.60;99.90;;;;;;5025868;28;20037;-77
2022/09/16 00:03:09;;;;;;;8.95;1.10;;;11.50;99.90;;;;;;5012699;28;20044;-80
2022/09/16 00:05:43;;;;;;;9.15;1.50;;;11.50;99.90;;;;;;5010350;28;20124;-79
2022/09/16 00:08:09;;;;;;;9.23;1.30;;;11.50;99.90;;;;;;5031754;28;20076;-81
2022/09/16 00:10:36;;;;;;;15.05;1.52;;;11.50;99.90;;;;;;5027120;28;20117;-77
2022/09/16 00:13:03;;;;;;;7.47;1.33;;;11.50;99.90;;;;;;4998912;28;20049;-78
2022/09/16 00:15:28;;;;;;;6.30;1.10;;;11.50;99.90;;;;;;5027227;28;20488;-76
2022/09/16 00:17:54;;;;;;;6.82;1.13;;;11.50;99.90;;;;;;5024796;28;20037;-77
2022/09/16 00:20:20;;;;;;;5.93;1.20;;;11.60;99.90;;;;;;5023535;28;20232;-79
2022/09/16 00:22:46;;;;;;;11.05;1.60;;;11.50;99.90;;;;;;5026200;28;20052;-79
2022/09/16 00:25:11;;;;;;;11.73;1.58;;;11.50;99.90;;;;;;5031554;28;20507;-78
2022/09/16 00:27:37;;;;;;;7.13;1.08;;;11.60;99.90;;;;;;5033053;28;20051;-79
2022/09/16 00:30:03;;;;;;;8.15;1.33;;;11.50;99.90;;;;;;5027071;28;20056;-82
2022/09/16 00:32:29;;;;;;;9.07;1.33;;;11.50;99.90;;;;;;5006294;28;20087;-77
2022/09/16 00:34:54;;;;;;;8.32;1.17;;;11.50;99.90;;;;;;5021127;28;20036;-79
2022/09/16 00:37:20;;;;;;;5.88;0.90;;;11.60;99.90;;;;;;5023361;28;20510;-79
2022/09/16 00:39:49;;;;;;;6.72;0.93;;;11.60;99.90;;;;;;5014835;28;20114;-81
2022/09/16 00:42:16;;;;;;;9.07;1.23;;;11.60;99.90;;;;;;5027283;28;20083;-79
2022/09/16 00:44:57;;;;;;;5.90;1.02;;;11.50;99.90;;;;;;5027668;28;20047;-77
2022/09/16 00:47:39;;;;;;;6.63;1.40;;;11.50;99.90;;;;;;5028713;28;20063;-80
2022/09/16 00:50:11;;;;;;;5.30;0.80;;;11.50;99.90;;;;;;5013571;28;20052;-79
2022/09/16 00:52:39;;;;;;;5.65;1.08;;;11.50;99.90;;;;;;5016588;28;20400;-82
2022/09/16 00:55:09;;;;;;;6.95;1.05;;;11.50;99.90;;;;;;5030755;28;20368;-79
2022/09/16 00:57:36;;;;;;;6.93;1.00;;;11.50;99.90;;;;;;5006332;28;20041;-80
2022/09/16 01:00:04;;;;;;;8.25;1.05;;;11.40;99.90;;;;;;5029871;28;20041;-80
2022/09/16 01:02:30;;;;;;;8.18;1.25;;;11.50;99.90;;;;;;5032703;28;20041;-79
2022/09/16 01:05:03;;;;;;;10.60;1.20;;;11.40;99.90;;;;;;5024791;28;20053;-79
2022/09/16 01:07:35;;;;;;;11.15;1.10;;;11.40;99.90;;;;;;5026824;28;20142;-79
2022/09/16 01:10:01;;;;;;;8.48;1.33;;;11.50;99.90;;;;;;5029918;28;20048;-83
2022/09/16 01:12:29;;;;;;;7.13;1.13;;;11.50;99.90;;;;;;5011374;28;20032;-82
2022/09/16 01:14:57;;;;;;;5.18;1.20;;;11.50;99.90;;;;;;5028597;28;20059;-78
2022/09/16 01:17:47;;;;;;;7.97;1.25;;;11.50;99.90;;;;;;5015392;28;20053;-77
2022/09/16 01:20:36;;;;;;;7.00;1.00;;;11.50;99.90;;;;;;5015048;28;20072;-82
2022/09/16 01:23:21;;;;;;;8.45;1.35;;;11.40;99.90;;;;;;5013978;28;20045;-79
2022/09/16 01:26:11;;;;;;;7.32;1.00;;;11.40;99.90;;;;;;5024967;28;20049;-80
2022/09/16 01:28:56;;;;;;;5.82;1.10;;;11.30;99.90;;;;;;5013662;28;20045;-78
2022/09/16 01:31:40;;;;;;;11.30;1.08;;;11.30;99.90;;;;;;5014984;28;20053;-76
2022/09/16 01:34:21;;;;;;;12.32;1.27;;;11.20;99.90;;;;;;5015241;28;20080;-76
2022/09/16 01:36:57;;;;;;;6.40;0.98;;;11.20;99.90;;;;;;5030188;28;20859;-81
2022/09/16 01:39:33;;;;;;;8.18;1.20;;;11.20;99.90;;;;;;5035647;28;20128;-82
2022/09/16 01:42:34;;;;;;;6.35;1.05;;;11.20;99.90;;;;;;5028358;28;20032;-77
2022/09/16 01:45:24;;;;;;;10.02;1.15;;;11.20;99.90;;;;;;4937330;28;20070;-77
2022/09/16 01:48:18;;;;;;;8.00;0.90;;;11.20;99.90;;;;;;4941130;28;20054;-78
2022/09/16 01:50:49;;;;;;;5.47;1.10;;;11.20;99.90;;;;;;4940703;28;20105;-80
2022/09/16 01:53:44;;;;;;;7.15;1.35;;;11.20;99.90;;;;;;4951000;28;20054;-77
2022/09/16 01:56:12;;;;;;;7.63;1.30;;;11.20;99.90;;;;;;4942357;28;20055;-79
2022/09/16 01:58:54;;;;;;;9.45;1.42;;;11.30;99.90;;;;;;4952781;28;20082;-77
2022/09/16 02:01:48;;;;;;;8.38;1.27;;;11.30;99.90;;;;;;4949003;28;20098;-76
2022/09/16 02:04:20;;;;;;;6.37;1.10;;;11.30;99.90;;;;;;4878864;29;20064;-78
2022/09/16 02:06:50;;;;;;;8.95;1.58;;;11.30;99.90;;;;;;4893690;29;20500;-75
2022/09/16 02:09:23;;;;;;;14.00;1.52;;;11.30;99.90;;;;;;4877993;29;20067;-78
2022/09/16 02:11:51;;;;;;;6.15;1.17;;;11.20;99.90;;;;;;4881010;29;20227;-80
2022/09/16 02:14:22;;;;;;;12.13;1.40;;;11.20;99.90;;;;;;4895275;29;20493;-80
2022/09/16 02:16:51;;;;;;;10.90;1.52;;;11.10;99.90;;;;;;4892823;29;20051;-75
2022/09/16 02:19:28;;;;;;;6.90;1.10;;;11.10;99.90;;;;;;4928921;29;20157;-79
2022/09/16 02:21:56;;;;;;;9.38;1.30;;;11.10;99.90;;;;;;4932327;28;20048;-78
2022/09/16 02:24:24;;;;;;;5.95;1.20;;;11.00;99.90;;;;;;4955698;28;20039;-79
2022/09/16 02:27:14;;;;;;;11.43;1.15;;;11.10;99.90;;;;;;4936093;28;20039;-76
2022/09/16 02:29:47;;;;;;;11.45;1.30;;;10.90;99.90;;;;;;4951452;29;20043;-74
2022/09/16 02:32:14;;;;;;;5.55;1.17;;;11.00;99.90;;;;;;4946559;28;20487;-77
2022/09/16 02:34:45;;;;;;;6.38;1.15;;;10.90;99.90;;;;;;4955225;28;20055;-75
2022/09/16 02:37:17;;;;;;;7.03;1.30;;;10.90;99.90;;;;;;4940597;28;20261;-78
2022/09/16 02:39:46;;;;;;;12.13;1.30;;;10.90;99.90;;;;;;4939794;29;20078;-80
2022/09/16 02:42:12;;;;;;;6.25;1.30;;;11.00;99.90;;;;;;5019335;28;20049;-79
2022/09/16 02:44:38;;;;;;;10.05;1.40;;;11.00;99.90;;;;;;5010245;28;20350;-78
2022/09/16 02:47:23;;;;;;;11.30;1.40;;;11.00;99.90;;;;;;5010670;28;20468;-77
2022/09/16 02:50:08;;;;;;;9.20;1.08;;;11.10;99.90;;;;;;5031801;28;20061;-75
2022/09/16 02:53:03;;;;;;;8.50;1.20;;;11.00;99.90;;;;;;5010050;28;20044;-76
2022/09/16 02:56:01;;;;;;;9.73;1.42;;;11.10;99.90;;;;;;5011970;28;20136;-75
2022/09/16 02:58:26;;;;;;;12.93;1.40;;;11.10;99.90;;;;;;5008334;28;20037;-81
2022/09/16 03:00:54;;;;;;;16.35;1.75;;;11.10;99.90;;;;;;5003524;28;20128;-77
2022/09/16 03:03:20;;;;;;;13.63;1.55;;;11.10;99.90;;;;;;5015889;28;20116;-78
2022/09/16 03:06:04;;;;;;;17.52;1.98;;;11.20;99.90;;;;;;5004688;28;20128;-75
2022/09/16 03:08:31;;;;;;;13.70;1.42;;;11.30;99.90;;;;;;5029184;28;20083;-78
2022/09/16 03:11:03;;;;;;;10.65;1.45;;;11.20;99.90;;;;;;5026730;28;20445;-80
2022/09/16 03:13:43;;;;;;;12.70;1.70;;;11.20;99.90;;;;;;5029648;28;20044;-79
2022/09/16 03:16:44;;;;;;;10.93;1.33;;;11.00;99.90;;;;;;5018005;28;20072;-75
2022/09/16 03:19:35;;;;;;;6.20;1.20;;;11.00;99.90;;;;;;4942132;28;20663;-79
2022/09/16 03:22:28;;;;;;;9.63;1.48;;;11.00;99.90;;;;;;4952914;28;20057;-74
2022/09/16 03:25:06;;;;;;;8.68;1.20;;;11.00;99.90;;;;;;4955716;28;20434;-79
2022/09/16 03:27:41;;;;;;;7.80;1.40;;;11.00;99.90;;;;;;4953795;28;20053;-76
2022/09/16 03:30:09;;;;;;;10.48;1.50;;;10.90;99.90;;;;;;4953438;28;20045;-79
2022/09/16 03:32:43;;;;;;;14.95;1.13;;;10.90;99.90;;;;;;4953488;28;20053;-79
2022/09/16 03:35:12;;;;;;;10.85;1.38;;;10.90;99.90;;;;;;4952430;28;20471;-78
2022/09/16 03:37:39;;;;;;;16.05;1.50;;;10.80;99.90;;;;;;4953177;28;20039;-80
2022/09/16 03:40:10;;;;;;;10.60;1.20;;;10.80;99.90;;;;;;4955511;28;20057;-77
2022/09/16 03:42:41;;;;;;;10.68;1.60;;;10.80;99.90;;;;;;4967625;28;20494;-77
2022/09/16 03:45:11;;;;;;;10.85;1.52;;;10.80;99.90;;;;;;4953071;28;20109;-78
2022/09/16 03:47:37;;;;;;;13.25;1.65;;;10.80;99.90;;;;;;4942093;28;20081;-76
2022/09/16 03:50:04;;;;;;;10.60;1.40;;;10.80;99.90;;;;;;4945745;28;20534;-78
2022/09/16 03:52:29;;;;;;;8.70;1.33;;;10.80;99.90;;;;;;4965443;28;20068;-79
2022/09/16 03:54:55;;;;;;;14.18;2.17;;;10.90;99.90;;;;;;4980995;28;20064;-77
2022/09/16 03:57:21;;;;;;;9.80;1.20;;;10.60;99.90;;;;;;4990569;28;20124;-76
2022/09/16 03:59:46;;;;;;;12.50;1.45;;;10.70;99.90;;;;;;5006229;28;20230;-75
2022/09/16 04:02:12;;;;;;;13.30;1.58;;;10.60;99.90;;;;;;5010488;28;20172;-77
2022/09/16 04:04:37;;;;;;;12.90;1.85;;;10.70;99.90;;;;;;5011456;28;20331;-77
2022/09/16 04:07:03;;;;;;;8.52;1.40;;;10.60;99.90;;;;;;4994386;28;20034;-79
2022/09/16 04:09:29;;;;;;;10.45;1.42;;;10.60;99.90;;;;;;5004318;28;20033;-78
2022/09/16 04:11:54;;;;;;;8.23;1.80;;;10.60;99.90;;;;;;4999573;28;20461;-73
2022/09/16 04:14:20;;;;;;;13.75;1.73;;;10.60;99.90;;;;;;5006217;28;20260;-77
2022/09/16 04:16:46;;;;;;;12.65;1.50;;;10.60;99.90;;;;;;4994951;28;20502;-76
2022/09/16 04:19:13;;;;;;;13.02;1.95;;;10.50;99.90;;;;;;4995782;28;20049;-76
2022/09/16 04:21:39;;;;;;;10.00;1.70;;;10.50;99.90;;;;;;5000253;28;20053;-77
2022/09/16 04:24:05;;;;;;;14.40;1.83;;;10.40;99.90;;;;;;5026368;28;20110;-80
2022/09/16 04:26:31;;;;;;;11.80;1.70;;;10.40;99.90;;;;;;5037404;28;20455;-76
2022/09/16 04:28:57;;;;;;;8.35;1.38;;;10.30;99.90;;;;;;5020067;28;20057;-76
2022/09/16 04:31:23;;;;;;;11.00;1.52;;;10.30;99.90;;;;;;5036553;28;20041;-80
2022/09/16 04:33:49;;;;;;;12.40;1.95;;;10.30;99.90;;;;;;5033101;28;20108;-75
2022/09/16 04:36:17;;;;;;;13.88;1.90;;;10.20;99.90;;;;;;5025748;28;20478;-76
2022/09/16 04:38:46;;;;;;;8.38;1.50;;;10.20;99.90;;;;;;5027278;28;20674;-78
2022/09/16 04:41:16;;;;;;;14.25;1.75;;;10.30;99.90;;;;;;5026612;28;20045;-78
2022/09/16 04:43:42;;;;;;;10.98;2.00;;;10.30;99.90;;;;;;5014709;28;20080;-75
2022/09/16 04:46:09;;;;;;;15.25;1.75;;;10.30;99.90;;;;;;5030725;28;20033;-80
2022/09/16 04:48:35;;;;;;;17.13;1.73;;;10.30;99.90;;;;;;5017294;28;20044;-74
2022/09/16 04:51:05;;;;;;;17.70;1.75;;;10.30;99.90;;;;;;5033680;28;20037;-78
2022/09/16 04:53:32;;;;;;;11.18;1.50;;;10.30;99.90;;;;;;5031882;28;20078;-74
2022/09/16 04:56:07;;;;;;;8.23;1.20;;;10.30;99.90;;;;;;5029680;28;20124;-81
2022/09/16 04:58:32;;;;;;;14.32;2.15;;;10.30;99.90;;;;;;5032534;28;20512;-76
2022/09/16 05:01:11;;;;;;;17.25;1.77;;;10.30;99.90;;;;;;5025654;28;20041;-76
2022/09/16 05:03:42;;;;;;;26.35;1.90;;;10.30;99.90;;;;;;5023685;28;20028;-78
2022/09/16 05:06:13;;;;;;;13.38;1.50;;;10.30;99.90;;;;;;5035836;28;20477;-76
2022/09/16 05:08:39;;;;;;;10.68;1.90;;;10.30;99.90;;;;;;5029856;28;20547;-75
2022/09/16 05:11:08;;;;;;;14.88;1.88;;;10.40;99.90;;;;;;5019259;28;20041;-79
2022/09/16 05:13:34;;;;;;;12.90;1.98;;;10.40;99.90;;;;;;5014152;28;20078;-78
2022/09/16 05:16:04;;;;;;;13.55;1.58;;;10.40;99.90;;;;;;5034039;28;20041;-81
2022/09/16 05:18:30;;;;;;;14.32;2.00;;;10.40;99.90;;;;;;5011865;28;20039;-80
2022/09/16 05:20:58;;;;;;;20.15;2.05;;;10.40;99.90;;;;;;5050285;28;20453;-81
2022/09/16 05:23:24;;;;;;;14.50;1.92;;;10.50;99.90;;;;;;5014445;28;20049;-80
2022/09/16 05:25:50;;;;;;;14.05;1.88;;;10.40;99.90;;;;;;5030963;28;20748;-80
2022/09/16 05:28:15;;;;;;;13.50;1.67;;;10.40;99.90;;;;;;5015769;28;20037;-79
2022/09/16 05:30:41;;;;;;;14.63;1.80;;;10.40;99.90;;;;;;5050402;28;20045;-79
2022/09/16 05:33:09;;;;;;;12.85;1.70;;;10.40;99.90;;;;;;5050030;28;20121;-80
2022/09/16 05:35:35;;;;;;;17.58;2.05;;;10.40;99.90;;;;;;5014433;28;20069;-80
2022/09/16 05:38:01;;;;;;;12.60;1.88;;;10.40;99.90;;;;;;5020083;28;20339;-78
2022/09/16 05:40:27;;;;;;;14.27;2.03;;;10.30;99.90;;;;;;5005935;28;20044;-77
2022/09/16 05:42:53;;;;;;;9.35;1.65;;;10.40;99.90;;;;;;5030163;28;20037;-79
2022/09/16 05:45:19;;;;;;;23.85;2.38;;;10.30;99.90;;;;;;5029831;28;20095;-78
2022/09/16 05:47:48;;;;;;;10.13;1.73;;;10.30;99.90;;;;;;5013504;28;20111;-80
2022/09/16 05:50:13;;;;;;;21.02;2.15;;;10.40;99.90;;;;;;5030657;28;20068;-77
2022/09/16 05:52:39;;;;;;;14.07;1.73;;;10.40;99.90;;;;;;5030124;28;20091;-78
2022/09/16 05:55:05;;;;;;;14.40;2.33;;;10.40;99.90;;;;;;5050943;28;20049;-79
2022/09/16 05:57:31;;;;;;;16.73;2.10;;;10.40;99.90;;;;;;5031243;28;20187;-82
2022/09/16 05:59:56;;;;;;;11.65;1.75;;;10.50;99.90;;;;;;5027521;28;20033;-80
2022/09/16 06:02:22;;;;;;;11.18;2.15;;;10.60;99.90;;;;;;5013924;28;20103;-79
2022/09/16 06:04:47;;;;;;;14.07;1.80;;;10.60;99.90;;;;;;5032760;28;20044;-77
2022/09/16 06:07:16;;;;;;;18.45;2.08;;;10.60;99.90;;;;;;5009917;28;20140;-79
2022/09/16 06:09:42;;;;;;;17.40;2.13;;;10.70;99.90;;;;;;5024401;28;20041;-77
2022/09/16 06:12:09;;;;;;;22.35;2.03;;;10.70;99.90;;;;;;5025408;28;20104;-79
2022/09/16 06:14:35;;;;;;;10.25;1.52;;;10.70;99.90;;;;;;4994217;28;20056;-77
2022/09/16 06:17:01;;;;;;;14.88;2.33;;;10.70;99.90;;;;;;5040320;28;20087;-78
2022/09/16 06:19:26;;;;;;;16.95;2.20;;;10.70;99.90;;;;;;5023153;28;20053;-76
2022/09/16 06:21:54;;;;;;;14.65;1.80;;;10.70;99.90;;;;;;5020174;28;20045;-79
2022/09/16 06:24:20;;;;;;;13.45;1.83;;;10.80;99.90;;;;;;5016642;28;20103;-78
2022/09/16 06:26:48;;;;;;;11.95;1.60;;;10.80;99.90;;;;;;5021934;28;20049;-77
2022/09/16 06:29:15;;;;;;;18.52;1.98;;;10.80;99.90;;;;;;5017570;28;20082;-80
2022/09/16 06:31:44;;;;;;;13.02;1.80;;;10.80;99.90;;;;;;5019852;28;20048;-80
2022/09/16 06:34:13;;;;;;;12.88;1.80;;;10.90;99.90;;;;;;5022572;28;20045;-78
2022/09/16 06:36:39;;;;;;;8.90;1.48;;;11.00;99.90;;;;;;5023969;28;20061;-81
2022/09/16 06:39:05;;;;;;;19.70;2.10;;;11.00;99.90;;;;;;5023391;28;20373;-78
2022/09/16 06:41:32;;;;;;;17.33;1.90;;;11.10;99.90;;;;;;5021011;28;20045;-78
2022/09/16 06:43:58;;;;;;;17.65;1.67;;;11.20;99.90;;;;;;5023093;28;20436;-77
2022/09/16 06:46:26;;;;;;;12.80;2.05;;;11.20;99.90;;;;;;5019280;28;20056;-77
2022/09/16 06:48:55;;;;;;;13.77;1.80;;;11.30;99.90;;;;;;5024751;28;20033;-78
2022/09/16 06:51:27;;;;;;;13.75;1.75;;;11.50;99.90;;;;;;5001888;28;20065;-80
2022/09/16 06:53:57;;;;;;;9.65;1.58;;;11.60;99.90;;;;;;5007527;28;20119;-78
2022/09/16 06:56:23;;;;;;;17.60;2.10;;;11.70;99.90;;;;;;5025497;28;20798;-77
2022/09/16 06:58:52;;;;;;;12.20;1.73;;;11.80;99.90;;;;;;5027840;28;20033;-80
2022/09/16 07:01:27;;;;;;;16.80;1.73;;;11.90;99.90;;;;;;5008196;28;20068;-78
2022/09/16 07:03:53;;;;;;;;;;;12.10;99.90;;;;;;5022183;28;20198;-78
2022/09/16 07:06:20;;;;;;;11.20;1.70;;;12.50;99.90;;;;;;5005439;28;19948;-80
2022/09/16 07:08:46;;;;;;;15.15;2.10;;;12.60;99.90;;;;;;5026290;28;20654;-79
2022/09/16 07:11:15;;;;;;;12.07;1.98;;;12.60;99.90;;;;;;5028760;28;20492;-79
2022/09/16 07:13:42;;;;;;;17.73;2.50;;;12.60;99.90;;;;;;5027401;28;20120;-76
2022/09/16 07:16:10;;;;;;;17.42;2.40;;;12.50;99.90;;;;;;5008196;28;20046;-80
2022/09/16 07:18:37;;;;;;;16.08;2.15;;;12.50;99.90;;;;;;5025895;28;20037;-78
2022/09/16 07:21:06;;;;;;;15.30;1.90;;;12.50;99.90;;;;;;5015242;28;20056;-82
2022/09/16 07:23:34;;;;;;;12.90;2.05;;;12.50;99.90;;;;;;5009171;28;20099;-79
2022/09/16 07:26:07;;;;;;;14.98;2.10;;;12.60;99.90;;;;;;5042101;28;20041;-79
2022/09/16 07:28:34;;;;;;;12.98;2.00;;;12.70;99.90;;;;;;5026802;28;20464;-79
2022/09/16 07:31:01;;;;;;;15.57;2.58;;;12.80;99.90;;;;;;5007796;28;20530;-76
2022/09/16 07:33:32;;;;;;;17.85;2.45;;;12.90;99.90;;;;;;5005425;28;20044;-83
2022/09/16 07:36:01;;;;;;;12.65;2.15;;;13.10;99.90;;;;;;5008608;28;20045;-78
2022/09/16 07:38:29;;;;;;;16.60;1.98;;;13.20;99.90;;;;;;5020445;28;20042;-76
2022/09/16 07:40:55;;;;;;;14.85;2.25;;;13.30;99.90;;;;;;5016792;28;20068;-76
2022/09/16 07:43:21;;;;;;;14.02;2.20;;;13.40;99.90;;;;;;5034975;28;20116;-77
2022/09/16 07:45:53;;;;;;;19.48;2.30;;;13.70;99.90;;;;;;5010760;28;20147;-77
2022/09/16 07:48:19;;;;;;;14.65;2.17;;;13.80;99.90;;;;;;5014449;28;20069;-76
2022/09/16 07:51:03;;;;;;;22.02;2.55;;;13.80;99.90;;;;;;5028443;28;20052;-76
2022/09/16 07:53:29;;;;;;;16.40;2.53;;;13.70;99.90;;;;;;5035685;28;20452;-74
2022/09/16 07:56:00;;;;;;;16.77;2.22;;;13.70;99.90;;;;;;5011003;28;20132;-75
2022/09/16 07:58:25;;;;;;;15.50;2.22;;;13.70;99.90;;;;;;5027662;28;20546;-76
2022/09/16 08:00:51;;;;;;;11.35;1.70;;;13.70;99.90;;;;;;5010964;28;20049;-77
2022/09/16 08:03:17;;;;;;;12.00;2.00;;;13.60;99.90;;;;;;5025160;28;20132;-78
2022/09/16 08:05:43;;;;;;;17.50;2.40;;;13.60;99.90;;;;;;5024318;28;20033;-77
2022/09/16 08:08:08;;;;;;;16.33;2.10;;;13.40;99.90;;;;;;5021065;28;20033;-78
2022/09/16 08:10:36;;;;;;;17.08;2.42;;;13.50;99.90;;;;;;5020414;28;20053;-77
2022/09/16 08:13:02;;;;;;;18.92;2.80;;;13.50;99.90;;;;;;5016185;28;20517;-78
2022/09/16 08:15:28;;;;;;;16.58;2.28;;;13.50;99.90;;;;;;5023690;28;20065;-76
2022/09/16 08:17:54;;;;;;;22.30;3.13;;;13.60;99.90;;;;;;5013850;28;20087;-76
2022/09/16 08:20:20;;;;;;;20.40;2.65;;;13.60;99.90;;;;;;5010002;28;20155;-75
2022/09/16 08:22:45;;;;;;;18.55;2.63;;;13.60;99.90;;;;;;5013630;28;20591;-80
2022/09/16 08:25:11;;;;;;;16.20;2.40;;;13.70;99.90;;;;;;5026639;28;20120;-78
2022/09/16 08:27:37;;;;;;;21.38;2.70;;;13.80;99.90;;;;;;5030544;28;20080;-79
2022/09/16 08:30:04;;;;;;;11.80;2.08;;;13.90;99.90;;;;;;5010549;28;20037;-76
2022/09/16 08:32:30;;;;;;;8.82;1.58;;;14.00;99.90;;;;;;5014491;28;20068;-77
2022/09/16 08:34:56;;;;;;;16.45;1.77;;;14.20;99.90;;;;;;5008559;28;20087;-75
2022/09/16 08:37:21;;;;;;;12.27;1.77;;;14.30;99.90;;;;;;5029394;28;20076;-79
2022/09/16 08:39:47;;;;;;;16.02;2.20;;;14.40;99.90;;;;;;5012561;28;20041;-74
2022/09/16 08:42:40;;;;;;;12.75;2.40;;;14.50;99.90;;;;;;5012881;28;20061;-76
2022/09/16 08:45:27;;;;;;;7.85;1.40;;;14.60;99.90;;;;;;5034298;28;20081;-76
2022/09/16 08:48:17;;;;;;;16.63;2.03;;;14.70;99.90;;;;;;5026444;28;20368;-79
2022/09/16 08:50:46;;;;;;;17.13;2.17;;;14.80;99.90;;;;;;5031729;28;20433;-78
2022/09/16 08:53:36;;;;;;;15.18;2.15;;;14.90;99.90;;;;;;4998773;28;20461;-78
2022/09/16 08:56:06;;;;;;;11.90;1.58;;;14.90;99.90;;;;;;5020058;28;20522;-77
2022/09/16 08:58:41;;;;;;;12.63;2.13;;;15.10;99.90;;;;;;5023755;28;20041;-78
2022/09/16 09:01:34;;;;;;;9.57;1.65;;;15.30;99.90;;;;;;5031727;28;20037;-75
2022/09/16 09:08:02;;;;;;;7.82;1.63;;;15.40;99.90;;;;;;5057536;28;20044;-80
2022/09/16 09:10:41;;;;;;;19.92;2.25;;;15.20;99.90;;;;;;4938587;28;20075;-76
2022/09/16 09:13:18;;;;;;;14.38;2.20;;;15.20;99.90;;;;;;4939797;29;20535;-77
2022/09/16 09:16:03;;;;;;;16.65;2.50;;;15.20;99.90;;;;;;4938636;29;20523;-78
2022/09/16 09:19:10;;;;;;;14.52;2.17;;;15.40;99.90;;;;;;4930806;28;20075;-76
2022/09/16 09:21:54;;;;;;;19.42;2.60;;;15.60;99.90;;;;;;4899983;29;20079;-77
2022/09/16 09:24:22;;;;;;;12.87;2.23;;;15.70;99.90;;;;;;4898524;29;20493;-78
2022/09/16 09:26:50;;;;;;;15.15;2.55;;;15.50;99.90;;;;;;4916195;29;20395;-79
2022/09/16 09:29:39;;;;;;;19.52;2.53;;;15.20;99.90;;;;;;4898038;29;20052;-75
2022/09/16 09:32:19;;;;;;;19.38;2.45;;;15.10;99.90;;;;;;4897941;29;20107;-78
2022/09/16 09:35:18;;;;;;;16.92;2.05;;;15.10;99.90;;;;;;4898132;29;20111;-77
2022/09/16 09:38:22;;;;;;;7.97;1.23;;;15.20;99.90;;;;;;4838639;29;20367;-78
2022/09/16 09:41:07;;;;;;;11.07;1.83;;;15.30;99.90;;;;;;4843824;29;20058;-76
2022/09/16 09:43:46;;;;;;;13.50;1.98;;;15.50;99.90;;;;;;4844494;29;20128;-77
2022/09/16 09:46:16;;;;;;;8.98;1.63;;;15.70;99.90;;;;;;4857830;29;20082;-77
2022/09/16 09:48:46;;;;;;;11.15;1.30;;;16.00;99.90;;;;;;4905367;29;20130;-79
2022/09/16 09:51:26;;;;;;;9.07;1.40;;;16.00;99.90;;;;;;4895031;29;20056;-76
2022/09/16 09:54:04;;;;;;;11.93;1.80;;;15.90;99.90;;;;;;4899511;29;20126;-81
2022/09/16 09:56:34;;;;;;;11.68;1.58;;;15.90;99.90;;;;;;4915686;29;20052;-78
2022/09/16 09:59:35;;;;;;;12.32;2.00;;;15.90;99.90;;;;;;4898041;29;20047;-76
2022/09/16 10:02:01;;;;;;;9.90;1.60;;;16.10;99.90;;;;;;4927757;28;20062;-77
2022/09/16 10:04:37;;;;;;;11.25;1.48;;;16.30;99.90;;;;;;4948797;28;20042;-78
2022/09/16 10:07:04;;;;;;;11.57;1.73;;;16.40;99.90;;;;;;4951938;29;20329;-77
2022/09/16 10:09:30;;;;;;;11.60;1.80;;;16.40;99.90;;;;;;4915475;29;20040;-81
2022/09/16 10:11:56;;;;;;;19.92;2.22;;;16.40;99.90;;;;;;4929563;29;20047;-79
2022/09/16 10:14:33;;;;;;;10.60;1.52;;;16.10;99.90;;;;;;4973980;28;20053;-76
2022/09/16 10:17:04;;;;;;;17.45;2.22;;;16.00;99.90;;;;;;5021749;28;20063;-78
2022/09/16 10:19:51;;;;;;;16.92;1.73;;;16.10;99.90;;;;;;5027703;28;20044;-78
2022/09/16 10:22:30;;;;;;;7.60;1.25;;;16.50;99.90;;;;;;5028962;28;20156;-75
2022/09/16 10:24:59;;;;;;;10.88;1.88;;;16.60;99.90;;;;;;5012786;28;20416;-76
2022/09/16 10:27:36;;;;;;;13.07;1.95;;;16.80;99.90;;;;;;5002900;28;20040;-78
2022/09/16 10:30:13;;;;;;;15.68;2.08;;;17.20;99.90;;;;;;5018985;28;20180;-78
2022/09/16 10:32:58;;;;;;;23.40;2.20;;;17.10;99.90;;;;;;5022236;28;20508;-81
2022/09/16 10:35:33;;;;;;;9.75;1.50;;;16.70;99.90;;;;;;5008986;28;20041;-76
2022/09/16 10:38:20;;;;;;;10.88;1.80;;;16.70;99.90;;;;;;5017363;28;20052;-79
2022/09/16 10:41:00;;;;;;;15.13;1.90;;;16.80;99.90;;;;;;5018250;28;20099;-76
2022/09/16 10:43:28;;;;;;;21.85;2.28;;;16.70;99.90;;;;;;5022536;28;20080;-76
2022/09/16 10:45:55;;;;;;;10.35;2.05;;;16.80;99.90;;;;;;5000540;28;20040;-77
2022/09/16 10:48:26;;;;;;;10.68;1.63;;;17.10;99.90;;;;;;5023359;28;20495;-80
2022/09/16 10:50:57;;;;;;;10.90;1.63;;;17.30;99.90;;;;;;5022838;28;20060;-77
2022/09/16 10:53:31;;;;;;;5.50;1.40;;;17.00;99.90;;;;;;5002265;28;20040;-80
2022/09/16 10:56:17;;;;;;;4.75;1.42;;;17.10;99.90;;;;;;5041597;28;20388;-76
2022/09/16 10:58:43;;;;;;;5.30;0.93;;;17.30;99.50;;;;;;5002542;28;20037;-78
2022/09/16 11:01:32;;;;;;;9.23;1.40;;;17.30;98.90;;;;;;5012650;28;20049;-78
2022/09/16 11:04:27;;;;;;;11.35;1.85;;;17.70;99.50;;;;;;4930789;29;20047;-77
2022/09/16 11:07:07;;;;;;;12.45;1.60;;;17.60;99.90;;;;;;4946988;29;20042;-79
2022/09/16 11:09:44;;;;;;;15.07;1.73;;;17.70;99.90;;;;;;4925531;29;20405;-80
2022/09/16 11:12:18;;;;;;;14.52;2.33;;;17.90;99.90;;;;;;4936186;29;20106;-78
2022/09/16 11:15:01;;;;;;;9.50;1.63;;;17.80;99.90;;;;;;4934131;29;20202;-78
2022/09/16 11:18:05;;;;;;;14.23;2.08;;;17.60;99.50;;;;;;4947207;28;20126;-78
2022/09/16 11:20:53;;;;;;;15.45;2.60;;;17.30;99.20;;;;;;4924613;28;20070;-81
2022/09/16 11:23:40;;;;;;;9.88;2.03;;;17.20;99.40;;;;;;4908390;29;20055;-79
2022/09/16 11:26:38;;;;;;;9.30;1.50;;;17.10;98.50;;;;;;4928057;29;20043;-76
2022/09/16 11:29:39;;;;;;;11.38;2.15;;;17.20;97.40;;;;;;4929894;29;20415;-77
2022/09/16 11:32:46;;;;;;;11.02;2.20;;;17.20;98.20;;;;;;4941504;29;20043;-78
2022/09/16 11:35:44;;;;;;;12.75;2.05;;;17.30;98.90;;;;;;4924908;29;20131;-76
2022/09/16 11:38:37;;;;;;;11.77;2.38;;;17.70;99.10;;;;;;4894261;29;20386;-76
2022/09/16 11:41:28;;;;;;;12.93;2.47;;;17.80;98.70;;;;;;4895342;29;20367;-76
2022/09/16 11:44:14;;;;;;;17.20;2.30;;;18.00;98.70;;;;;;4919146;28;20563;-76
2022/09/16 11:47:12;;;;;;;14.18;2.17;;;18.20;98.50;;;;;;4924538;29;20112;-77
2022/09/16 11:49:58;;;;;;;15.70;2.47;;;18.40;98.50;;;;;;4856251;29;20052;-77
2022/09/16 11:52:53;;;;;;;23.23;2.75;;;18.10;99.00;;;;;;4848050;29;20828;-78
2022/09/16 11:55:25;;;;;;;;;;;18.70;98.80;;;;;;4854252;29;20045;-78
2022/09/16 11:58:18;;;;;;;14.88;2.50;;;18.70;99.10;;;;;;4855726;29;20404;-76
2022/09/16 12:00:45;;;;;;;13.20;2.33;;;19.00;98.30;;;;;;4835219;29;20049;-77
2022/09/16 12:03:35;;;;;;;24.60;3.00;;;19.20;98.00;;;;;;4832318;29;20077;-77
2022/09/16 12:06:10;;;;;;;15.02;2.33;;;19.10;97.10;;;;;;4876411;29;20115;-77
2022/09/16 12:09:13;;;;;;;16.88;2.40;;;18.80;97.20;;;;;;4901944;29;20217;-78
2022/09/16 12:11:45;;;;;;;16.50;2.70;;;18.80;96.70;;;;;;4832929;29;20462;-79
2022/09/16 12:14:37;;;;;;;20.42;3.47;;;18.80;97.30;;;;;;4850170;29;20222;-79
2022/09/16 12:17:05;;;;;;;13.77;3.30;;;18.50;97.10;;;;;;4831319;29;20067;-81
2022/09/16 12:20:04;;;;;;;16.67;2.90;;;18.30;97.70;;;;;;4826010;29;20193;-77
2022/09/16 12:22:46;;;;;;;23.05;3.63;;;18.10;98.00;;;;;;4825330;29;20045;-78
2022/09/16 12:25:17;;;;;;;19.27;2.60;;;18.10;98.70;;;;;;4847148;28;20665;-79
2022/09/16 12:27:51;;;;;;;15.65;2.70;;;18.00;98.20;;;;;;4926450;28;20173;-77
2022/09/16 12:30:22;;;;;;;13.40;2.42;;;18.00;98.20;;;;;;4911818;28;20279;-79
2022/09/16 12:32:58;;;;;;;18.20;3.38;;;18.10;97.80;;;;;;4945439;28;20210;-77
2022/09/16 12:36:05;;;;;;;16.30;2.38;;;17.90;97.90;;;;;;4936342;28;20051;-77
2022/09/16 12:38:31;;;;;;;15.10;2.67;;;18.10;97.60;;;;;;4918730;29;20298;-75
2022/09/16 12:41:24;;;;;;;17.88;2.95;;;18.20;97.90;;;;;;4906248;29;20222;-77
2022/09/16 12:44:17;;;;;;;20.38;2.85;;;17.80;99.30;;;;;;4926001;29;20051;-76
2022/09/16 12:47:08;;;;;;;12.80;2.13;;;17.50;99.90;;;;;;5040285;28;20156;-77
2022/09/16 12:49:36;;;;;;;12.45;1.80;;;17.10;99.90;;;;;;5021123;28;20453;-79
2022/09/16 12:52:32;;;;;;;12.70;1.95;;;16.50;99.90;;;;;;5018196;28;20049;-79
2022/09/16 12:55:28;;;;;;;8.13;1.60;;;16.50;99.90;;;;;;5013505;28;20144;-78
2022/09/16 12:58:06;;;;;;;13.07;2.20;;;16.60;99.90;;;;;;5019711;28;20068;-77
2022/09/16 13:00:42;;;;;;;11.20;1.88;;;16.70;99.90;;;;;;5013224;28;20056;-79
2022/09/16 13:03:21;;;;;;;9.52;1.70;;;16.80;99.90;;;;;;5006209;28;20103;-78
2022/09/16 13:05:51;;;;;;;15.93;1.23;;;16.90;99.90;;;;;;5025707;28;20040;-78
2022/09/16 13:08:24;;;;;;;4.30;0.90;;;16.80;99.90;;;;;;5002835;28;20045;-78
2022/09/16 13:11:13;;;;;;;9.40;1.30;;;16.80;99.90;;;;;;5031229;28;20040;-77
2022/09/16 13:13:41;;;;;;;6.78;1.35;;;16.90;99.90;;;;;;5026020;28;20037;-78
2022/09/16 13:16:08;;;;;;;11.73;1.75;;;16.60;99.90;;;;;;5002708;28;20122;-78
2022/09/16 13:18:42;;;;;;;7.53;1.45;;;16.20;99.90;;;;;;5002842;28;20367;-79